Time;durP1;ratioP1;P1;durP2;ratioP2;P2;SDS_P1;SDS_P2;PMS_P1;PMS_P2;Temp;Humidity;BMP_temperature;BMP_pressure;BME280_temperature;BME280_humidity;BME280_pressure;Samples;Min_cycle;Max_cycle;Signal;HPM_P1;HPM_P2
2023/01/05 00:01:03;;;;;;;1.03;0.93;;;11.40;18.70;;;;;;5025037;28;20858;-69
2023/01/05 00:03:28;;;;;;;1.33;1.23;;;11.60;21.10;;;;;;5032207;28;20443;-68
2023/01/05 00:06:24;;;;;;;1.47;1.30;;;11.50;23.50;;;;;;5031869;28;20444;-69
2023/01/05 00:08:49;;;;;;;2.03;1.10;;;11.50;22.70;;;;;;5031169;28;20209;-70
2023/01/05 00:22:29;;;;;;;1.50;1.23;;;11.50;27.20;;;;;;5035481;28;21000;-70
2023/01/05 00:24:55;;;;;;;2.33;1.40;;;11.40;27.30;;;;;;5039953;28;20410;-68
2023/01/05 00:27:20;;;;;;;1.50;1.30;;;11.40;28.30;;;;;;5029886;28;20504;-69
2023/01/05 00:29:46;;;;;;;4.90;1.20;;;11.40;28.60;;;;;;5031348;28;20260;-69
2023/01/05 00:32:11;;;;;;;1.70;1.27;;;11.40;29.00;;;;;;5024000;28;20679;-67
2023/01/05 00:34:37;;;;;;;1.73;1.10;;;11.40;29.00;;;;;;5031853;28;20181;-69
2023/01/05 00:37:02;;;;;;;1.30;1.20;;;11.50;29.20;;;;;;5030654;28;20185;-69
2023/01/05 00:39:28;;;;;;;1.20;1.10;;;11.50;28.20;;;;;;5030985;28;20213;-69
2023/01/05 00:41:53;;;;;;;1.30;1.20;;;11.40;29.40;;;;;;5029556;28;20214;-68
2023/01/05 00:44:19;;;;;;;1.63;1.20;;;11.40;31.30;;;;;;5033406;28;20253;-68
2023/01/05 00:46:44;;;;;;;1.90;1.27;;;11.40;32.70;;;;;;5032016;28;20174;-69
2023/01/05 00:49:10;;;;;;;1.43;1.23;;;11.40;34.20;;;;;;5030938;28;20174;-68
2023/01/05 00:51:35;;;;;;;2.00;1.20;;;11.40;32.30;;;;;;5029225;28;20330;-69
2023/01/05 00:54:01;;;;;;;2.17;1.40;;;11.50;34.20;;;;;;5047254;28;20162;-68
2023/01/05 00:56:27;;;;;;;1.40;1.30;;;11.50;34.60;;;;;;5029228;28;20174;-70
2023/01/05 00:58:53;;;;;;;2.53;1.30;;;11.50;35.90;;;;;;5030230;28;20174;-68
2023/01/05 01:01:19;;;;;;;1.60;1.50;;;11.50;38.10;;;;;;5004488;28;20210;-68
2023/01/05 01:03:45;;;;;;;1.40;1.27;;;11.50;39.00;;;;;;5030961;28;20467;-69
2023/01/05 01:06:12;;;;;;;3.20;1.63;;;11.50;39.10;;;;;;5027783;28;20627;-71
2023/01/05 01:08:37;;;;;;;2.20;1.40;;;11.50;39.20;;;;;;5029942;28;20170;-70
2023/01/05 01:11:07;;;;;;;1.60;1.20;;;11.50;39.10;;;;;;5029556;28;20830;-69
2023/01/05 01:13:33;;;;;;;3.43;1.67;;;11.50;39.20;;;;;;5029400;28;20178;-70
2023/01/05 01:16:06;;;;;;;1.60;1.30;;;11.60;39.20;;;;;;5030214;28;20447;-71
2023/01/05 01:18:31;;;;;;;1.60;1.17;;;11.60;39.20;;;;;;5030362;28;20645;-69
2023/01/05 01:20:57;;;;;;;1.73;1.20;;;11.50;39.10;;;;;;5029064;28;20494;-68
2023/01/05 01:23:23;;;;;;;1.87;1.33;;;11.60;39.30;;;;;;5036046;28;20203;-69
2023/01/05 01:25:48;;;;;;;2.47;1.30;;;11.50;39.00;;;;;;5029381;28;20174;-69
2023/01/05 01:28:14;;;;;;;1.27;1.10;;;11.60;39.30;;;;;;5030461;28;20174;-68
2023/01/05 01:30:39;;;;;;;1.57;1.20;;;11.50;39.20;;;;;;5029394;28;20213;-69
2023/01/05 01:33:05;;;;;;;1.67;1.20;;;11.50;39.10;;;;;;5029839;28;20395;-69
2023/01/05 01:35:30;;;;;;;1.50;1.30;;;11.50;39.00;;;;;;5030520;28;20737;-68
2023/01/05 01:37:55;;;;;;;1.30;1.13;;;11.40;39.00;;;;;;5030285;28;20189;-69
2023/01/05 01:40:21;;;;;;;1.20;1.10;;;11.40;39.20;;;;;;5028207;28;20209;-69
2023/01/05 01:42:46;;;;;;;1.30;1.20;;;11.50;39.00;;;;;;5026732;28;20794;-69
2023/01/05 01:45:22;;;;;;;2.27;1.30;;;11.50;39.20;;;;;;5028187;28;20205;-69
2023/01/05 01:47:56;;;;;;;1.10;1.00;;;11.50;39.20;;;;;;5023190;28;20234;-69
2023/01/05 01:50:34;;;;;;;1.77;1.37;;;11.40;36.90;;;;;;5028899;28;20581;-69
2023/01/05 01:53:10;;;;;;;1.73;1.30;;;11.40;39.20;;;;;;5026930;28;20428;-69
2023/01/05 01:55:38;;;;;;;1.30;1.13;;;11.40;39.00;;;;;;5031978;28;20500;-68
2023/01/05 01:58:06;;;;;;;1.70;1.20;;;11.50;39.20;;;;;;5029642;28;20554;-69
2023/01/05 02:00:32;;;;;;;3.63;2.43;;;11.60;39.40;;;;;;5028109;28;20470;-69
2023/01/05 02:02:58;;;;;;;2.40;1.00;;;11.60;39.20;;;;;;5027599;28;20436;-69
2023/01/05 02:05:28;;;;;;;1.30;1.20;;;11.50;39.10;;;;;;5030124;28;20312;-70
2023/01/05 02:07:53;;;;;;;2.40;1.20;;;11.50;39.10;;;;;;5028354;28;20605;-69
2023/01/05 02:10:45;;;;;;;2.07;1.10;;;11.60;39.20;;;;;;5028189;28;20444;-69
2023/01/05 02:13:33;;;;;;;1.40;1.30;;;11.60;39.20;;;;;;5020182;28;20181;-68
2023/01/05 02:16:19;;;;;;;2.97;1.40;;;11.70;42.10;;;;;;5029773;28;20495;-68
2023/01/05 02:19:10;;;;;;;2.90;1.30;;;11.70;39.30;;;;;;5026007;28;20420;-69
2023/01/05 02:21:56;;;;;;;3.10;1.10;;;11.70;39.40;;;;;;5033291;28;20472;-67
2023/01/05 02:24:50;;;;;;;2.37;1.27;;;11.60;39.30;;;;;;5016817;28;20413;-69
2023/01/05 02:27:47;;;;;;;6.70;1.40;;;11.60;39.30;;;;;;5017654;28;20428;-69
2023/01/05 02:30:29;;;;;;;1.50;1.40;;;11.60;39.30;;;;;;5022739;28;20706;-67
2023/01/05 02:33:20;;;;;;;2.40;1.20;;;11.60;39.40;;;;;;5021003;28;20444;-69
2023/01/05 02:35:49;;;;;;;1.40;1.20;;;11.60;40.20;;;;;;5030003;28;20412;-69
2023/01/05 02:38:20;;;;;;;1.40;1.20;;;11.60;39.30;;;;;;5028401;28;20424;-68
2023/01/05 02:40:48;;;;;;;5.70;1.30;;;11.50;44.40;;;;;;5028132;28;20465;-69
2023/01/05 02:43:19;;;;;;;3.13;1.30;;;11.60;45.80;;;;;;5026813;28;20509;-68
2023/01/05 02:45:45;;;;;;;1.30;1.10;;;11.60;40.20;;;;;;5028210;28;20443;-69
2023/01/05 02:48:10;;;;;;;1.70;1.40;;;11.60;39.60;;;;;;5028963;28;20416;-68
2023/01/05 02:50:53;;;;;;;1.30;1.20;;;11.60;39.50;;;;;;5026598;28;20460;-69
2023/01/05 02:53:30;;;;;;;1.80;1.10;;;11.70;39.40;;;;;;5040939;28;20298;-69
2023/01/05 02:56:04;;;;;;;1.30;1.20;;;11.70;39.50;;;;;;5028999;28;20436;-68
2023/01/05 02:58:35;;;;;;;1.20;1.10;;;11.70;39.40;;;;;;5028778;28;20471;-68
2023/01/05 03:01:19;;;;;;;1.83;1.17;;;11.70;39.50;;;;;;5027529;28;20470;-68
2023/01/05 03:03:52;;;;;;;1.20;1.10;;;11.70;39.40;;;;;;5029109;28;20751;-69
2023/01/05 03:06:40;;;;;;;3.00;1.07;;;11.80;39.40;;;;;;5027582;28;20527;-68
2023/01/05 03:09:06;;;;;;;2.20;1.00;;;11.80;39.40;;;;;;5019746;28;20535;-69
2023/01/05 03:14:35;;;;;;;1.30;1.00;;;11.90;39.50;;;;;;5024099;28;20803;-69
2023/01/05 03:17:05;;;;;;;1.00;0.90;;;11.90;32.00;;;;;;5017579;28;20906;-69
2023/01/05 03:19:41;;;;;;;1.03;0.83;;;12.00;29.50;;;;;;5027619;28;20456;-68
2023/01/05 03:37:00;;;;;;;1.20;0.97;;;12.10;27.30;;;;;;5028208;28;20827;-69
2023/01/05 03:39:28;;;;;;;1.20;0.90;;;12.20;24.50;;;;;;5027809;28;20482;-69
2023/01/05 03:41:55;;;;;;;1.87;1.00;;;12.20;25.20;;;;;;5026399;28;20597;-68
2023/01/05 03:44:21;;;;;;;1.20;0.90;;;12.20;23.50;;;;;;5027506;28;21151;-69
2023/01/05 03:46:46;;;;;;;1.20;1.00;;;12.30;23.30;;;;;;5028356;28;20532;-69
2023/01/05 03:49:12;;;;;;;1.00;0.80;;;12.30;22.50;;;;;;5027827;28;20548;-69
2023/01/05 03:51:38;;;;;;;1.00;0.90;;;12.30;22.90;;;;;;5026207;28;20289;-69
2023/01/05 03:54:03;;;;;;;1.67;1.10;;;12.30;24.10;;;;;;5040274;28;20189;-69
2023/01/05 03:56:29;;;;;;;2.40;1.10;;;12.20;29.50;;;;;;5029182;28;20174;-69
2023/01/05 03:58:54;;;;;;;1.10;0.90;;;12.10;32.60;;;;;;5027401;28;20174;-69
2023/01/05 04:01:20;;;;;;;1.60;0.90;;;12.10;39.50;;;;;;5026873;28;20267;-68
2023/01/05 04:03:45;;;;;;;1.67;1.33;;;12.10;39.60;;;;;;5027376;28;20266;-69
2023/01/05 04:06:11;;;;;;;3.20;1.27;;;12.10;39.80;;;;;;5028696;28;20197;-69
2023/01/05 04:08:37;;;;;;;1.20;0.90;;;12.30;39.80;;;;;;5027897;28;20568;-69
2023/01/05 04:11:18;;;;;;;3.30;1.10;;;12.20;39.80;;;;;;5027410;28;20190;-69
2023/01/05 04:13:44;;;;;;;2.13;0.90;;;12.10;39.80;;;;;;5023812;28;20551;-69
2023/01/05 04:16:10;;;;;;;1.53;0.93;;;12.10;39.70;;;;;;5028076;28;20424;-68
2023/01/05 04:18:35;;;;;;;1.60;1.10;;;12.00;39.70;;;;;;5026390;28;20182;-69
2023/01/05 04:21:01;;;;;;;1.53;1.43;;;12.00;40.70;;;;;;5031330;28;20879;-70
2023/01/05 04:23:26;;;;;;;2.90;1.13;;;12.00;39.80;;;;;;5032580;28;20522;-68
2023/01/05 04:25:52;;;;;;;1.10;1.00;;;12.00;45.10;;;;;;5028489;28;20170;-69
2023/01/05 04:28:18;;;;;;;3.00;1.37;;;12.00;47.90;;;;;;5026293;28;20189;-69
2023/01/05 04:30:44;;;;;;;1.80;1.10;;;12.00;44.00;;;;;;5027867;28;20201;-70
2023/01/05 04:33:10;;;;;;;1.20;1.10;;;12.00;44.10;;;;;;5026030;28;20177;-69
2023/01/05 04:35:35;;;;;;;1.30;0.93;;;12.00;45.80;;;;;;5028302;28;20417;-68
2023/01/05 04:38:01;;;;;;;1.60;1.10;;;12.00;44.70;;;;;;5027346;28;20906;-69
2023/01/05 04:40:27;;;;;;;1.80;1.20;;;12.00;46.20;;;;;;5027459;28;20214;-68
2023/01/05 04:42:52;;;;;;;2.10;1.30;;;12.00;45.80;;;;;;5025200;28;20182;-68
2023/01/05 04:45:18;;;;;;;1.13;1.03;;;12.00;45.30;;;;;;5026194;28;20192;-70
2023/01/05 04:47:43;;;;;;;1.53;1.30;;;12.00;39.70;;;;;;5027957;28;20645;-69
2023/01/05 04:50:09;;;;;;;2.50;1.20;;;12.00;39.70;;;;;;5028983;28;20184;-68
2023/01/05 04:52:34;;;;;;;2.47;1.37;;;12.00;39.70;;;;;;5035473;28;20182;-70
2023/01/05 04:55:00;;;;;;;4.50;1.40;;;12.00;39.70;;;;;;5039053;28;20184;-70
2023/01/05 04:57:26;;;;;;;3.27;1.20;;;12.00;39.70;;;;;;5031643;28;20278;-69
2023/01/05 04:59:51;;;;;;;1.33;1.23;;;12.00;39.60;;;;;;5030175;28;20624;-69
2023/01/05 05:02:17;;;;;;;10.13;1.40;;;11.90;39.70;;;;;;5029335;28;20251;-69
2023/01/05 05:04:42;;;;;;;5.87;1.70;;;11.90;19.20;;;;;;5031408;28;20162;-68
2023/01/05 05:07:08;;;;;;;6.20;1.97;;;11.90;15.60;;;;;;5030936;28;20256;-68
2023/01/05 05:09:33;;;;;;;9.17;1.70;;;11.80;1.00;;;;;;5030828;28;20170;-68
2023/01/05 05:11:59;;;;;;;10.43;2.97;;;11.80;1.00;;;;;;5029083;28;20410;-69
2023/01/05 05:14:24;;;;;;;6.73;2.37;;;11.80;1.00;;;;;;5030070;28;20233;-68
2023/01/05 05:16:50;;;;;;;11.00;2.27;;;11.80;1.00;;;;;;5029950;28;20725;-70
2023/01/05 05:19:15;;;;;;;6.40;1.70;;;11.80;1.00;;;;;;5028445;28;20309;-68
2023/01/05 05:21:41;;;;;;;9.80;2.60;;;11.70;1.00;;;;;;5033555;28;20201;-69
2023/01/05 05:24:06;;;;;;;7.13;2.00;;;11.80;1.00;;;;;;5045521;28;20735;-68
2023/01/05 05:26:32;;;;;;;9.90;2.27;;;11.90;1.00;;;;;;5030828;28;20182;-68
2023/01/05 05:28:58;;;;;;;7.53;1.60;;;11.90;1.00;;;;;;5028013;28;20197;-68
2023/01/05 05:31:24;;;;;;;10.50;2.10;;;11.90;1.00;;;;;;5030046;28;20245;-68
2023/01/05 05:33:49;;;;;;;9.73;2.30;;;11.90;1.00;;;;;;5029631;28;20448;-69
2023/01/05 05:36:16;;;;;;;8.47;2.37;;;12.00;1.00;;;;;;5031514;28;20300;-69
2023/01/05 05:38:42;;;;;;;11.07;2.03;;;12.00;1.00;;;;;;5031125;28;20259;-68
2023/01/05 05:41:08;;;;;;;6.37;2.30;;;12.10;1.00;;;;;;5029968;28;20483;-68
2023/01/05 05:43:33;;;;;;;9.50;2.70;;;12.20;1.00;;;;;;5029210;28;20233;-69
2023/01/05 05:45:59;;;;;;;9.20;2.33;;;12.20;1.00;;;;;;5035659;28;20487;-68
2023/01/05 05:48:24;;;;;;;10.43;1.87;;;12.20;1.00;;;;;;5029825;28;20263;-68
2023/01/05 05:50:50;;;;;;;11.67;2.43;;;12.20;1.00;;;;;;5029609;28;20204;-69
2023/01/05 05:53:15;;;;;;;7.57;2.37;;;12.30;1.00;;;;;;5028704;28;20236;-70
2023/01/05 05:55:41;;;;;;;8.73;2.20;;;12.20;1.00;;;;;;5029597;28;20257;-69
2023/01/05 05:58:06;;;;;;;12.87;3.60;;;12.20;1.00;;;;;;5030253;28;20252;-68
2023/01/05 06:00:32;;;;;;;13.23;2.33;;;12.20;1.00;;;;;;5028805;28;20213;-69
2023/01/05 06:02:57;;;;;;;9.57;2.60;;;12.20;1.00;;;;;;5029148;28;20417;-68
2023/01/05 06:05:23;;;;;;;8.97;2.00;;;12.20;1.00;;;;;;5029507;28;20184;-69
2023/01/05 06:07:48;;;;;;;11.40;2.37;;;12.20;1.00;;;;;;5030149;28;20216;-69
2023/01/05 06:10:14;;;;;;;12.50;2.00;;;12.20;1.00;;;;;;5029030;28;20272;-68
2023/01/05 06:12:39;;;;;;;10.03;2.73;;;12.20;1.00;;;;;;5029745;28;20653;-68
2023/01/05 06:15:06;;;;;;;7.03;1.93;;;12.20;1.00;;;;;;5027713;28;20593;-69
2023/01/05 06:17:31;;;;;;;6.30;1.83;;;12.20;1.00;;;;;;5028756;28;20231;-69
2023/01/05 06:19:57;;;;;;;11.43;3.00;;;12.20;1.00;;;;;;5029443;28;20475;-67
2023/01/05 06:22:22;;;;;;;13.03;2.30;;;11.60;1.00;;;;;;5038705;28;20668;-67
2023/01/05 06:24:48;;;;;;;8.90;2.30;;;12.20;1.00;;;;;;5029302;28;20174;-69
2023/01/05 06:27:13;;;;;;;7.70;2.03;;;12.20;1.00;;;;;;5029429;28;20257;-68
2023/01/05 06:29:38;;;;;;;7.20;2.33;;;12.20;1.00;;;;;;5028686;28;20184;-68
2023/01/05 06:32:04;;;;;;;9.50;2.20;;;12.30;1.00;;;;;;5028071;28;20555;-68
2023/01/05 06:34:30;;;;;;;10.00;2.20;;;12.30;1.00;;;;;;5029112;28;20249;-69
2023/01/05 06:36:55;;;;;;;7.87;2.50;;;12.30;1.00;;;;;;5029126;28;20177;-68
2023/01/05 06:39:21;;;;;;;9.53;2.40;;;12.20;1.00;;;;;;5028720;28;20189;-69
2023/01/05 06:41:46;;;;;;;8.50;2.90;;;12.10;1.00;;;;;;5027316;28;20208;-69
2023/01/05 06:44:12;;;;;;;8.43;2.27;;;12.10;1.00;;;;;;5028488;28;20189;-67
2023/01/05 06:46:37;;;;;;;9.90;2.93;;;12.20;1.00;;;;;;5028231;28;20181;-69
2023/01/05 06:49:03;;;;;;;7.37;2.30;;;12.20;1.00;;;;;;5028859;28;20174;-68
2023/01/05 06:51:29;;;;;;;12.07;3.17;;;12.20;1.00;;;;;;5032299;28;20571;-68
2023/01/05 06:53:54;;;;;;;5.50;2.50;;;12.30;1.00;;;;;;5044450;28;20186;-68
2023/01/05 06:56:20;;;;;;;11.73;2.80;;;12.30;1.00;;;;;;5028859;28;20817;-68
2023/01/05 06:58:45;;;;;;;9.23;2.60;;;12.30;1.00;;;;;;5028923;28;20189;-69
2023/01/05 07:01:11;;;;;;;13.80;2.70;;;12.20;1.00;;;;;;5027843;28;20588;-68
2023/01/05 07:03:36;;;;;;;8.63;2.40;;;12.10;1.00;;;;;;5028004;28;20618;-69
2023/01/05 07:06:03;;;;;;;11.77;2.30;;;12.20;1.00;;;;;;5028337;28;20185;-70
2023/01/05 07:08:28;;;;;;;10.50;2.53;;;12.20;1.00;;;;;;5027030;28;20182;-70
2023/01/05 07:10:54;;;;;;;8.17;2.50;;;12.20;1.00;;;;;;5029103;28;20816;-68
2023/01/05 07:13:20;;;;;;;10.10;2.13;;;12.20;1.00;;;;;;5028757;28;20185;-70
2023/01/05 07:15:45;;;;;;;10.00;2.40;;;12.20;1.00;;;;;;5028334;28;20173;-70
2023/01/05 07:18:11;;;;;;;11.17;2.50;;;12.20;1.00;;;;;;5027281;28;20439;-70
2023/01/05 07:20:37;;;;;;;18.20;5.77;;;12.20;1.00;;;;;;5033819;28;20692;-69
2023/01/05 07:23:02;;;;;;;38.70;16.40;;;12.20;1.00;;;;;;5033471;28;20225;-70
2023/01/05 07:25:30;;;;;;;12.17;5.40;;;12.20;1.00;;;;;;5027604;28;20181;-70
2023/01/05 07:27:56;;;;;;;12.53;3.30;;;12.20;1.00;;;;;;5027931;28;20192;-70
2023/01/05 07:30:21;;;;;;;10.90;3.10;;;12.20;1.00;;;;;;5027432;28;20459;-70
2023/01/05 07:32:47;;;;;;;11.00;2.23;;;12.20;1.00;;;;;;5024852;28;20450;-70
2023/01/05 16:03:28;;;;;;;13.40;4.37;;;11.60;1.00;;;;;;5067161;28;21073;-71
2023/01/05 16:06:17;;;;;;;9.60;3.50;;;11.70;1.00;;;;;;5047509;28;20485;-71
2023/01/05 16:08:47;;;;;;;12.67;3.10;;;11.80;1.00;;;;;;5043778;28;20420;-70
2023/01/05 16:11:25;;;;;;;9.70;3.00;;;11.90;1.00;;;;;;5046228;28;20408;-71
2023/01/05 16:14:09;;;;;;;13.37;3.30;;;12.00;1.00;;;;;;5047457;28;20424;-71
2023/01/05 16:16:36;;;;;;;11.23;3.53;;;12.20;1.00;;;;;;5046618;28;20439;-69
2023/01/05 16:19:10;;;;;;;12.87;3.30;;;12.30;1.00;;;;;;5046801;28;20482;-71
2023/01/05 16:21:45;;;;;;;14.67;4.07;;;12.40;1.00;;;;;;5053805;28;20498;-72
2023/01/05 16:24:16;;;;;;;17.30;4.10;;;12.40;1.00;;;;;;5058018;28;20718;-71
2023/01/05 16:26:41;;;;;;;8.13;3.00;;;12.50;1.00;;;;;;5059739;28;20434;-68
2023/01/05 16:29:26;;;;;;;13.80;3.23;;;12.50;1.00;;;;;;5064888;28;20407;-65
2023/01/05 16:31:53;;;;;;;12.87;3.43;;;12.60;1.00;;;;;;5061174;28;20460;-68
2023/01/05 16:34:24;;;;;;;14.37;3.93;;;12.60;1.00;;;;;;5046109;28;20392;-67
2023/01/05 16:37:07;;;;;;;15.00;3.43;;;12.70;1.00;;;;;;5046147;28;20412;-70
2023/01/05 16:39:38;;;;;;;12.33;3.63;;;12.70;1.00;;;;;;5043815;28;20814;-68
2023/01/05 16:42:31;;;;;;;11.53;3.10;;;12.70;1.00;;;;;;5044249;28;20451;-67
2023/01/05 16:44:58;;;;;;;17.23;4.60;;;12.70;1.00;;;;;;5047156;28;20419;-67
2023/01/05 16:47:38;;;;;;;15.37;4.17;;;12.70;1.00;;;;;;5045782;28;20584;-67
2023/01/05 16:50:36;;;;;;;14.23;4.33;;;12.70;1.00;;;;;;5046428;28;20506;-67
2023/01/05 16:53:11;;;;;;;11.97;3.33;;;12.70;1.00;;;;;;5045412;28;20895;-68
2023/01/05 16:55:37;;;;;;;17.17;3.87;;;12.80;1.00;;;;;;5045060;28;20531;-68
2023/01/05 16:58:22;;;;;;;11.17;3.30;;;12.80;1.00;;;;;;5083088;22;20486;-70
2023/01/05 17:00:48;;;;;;;13.93;3.00;;;12.90;1.00;;;;;;5063703;28;20948;-71
2023/01/05 17:03:22;;;;;;;10.70;3.10;;;12.80;1.00;;;;;;5064709;28;20459;-71
2023/01/05 17:05:51;;;;;;;17.60;3.40;;;12.80;1.00;;;;;;5064318;28;20172;-71
2023/01/05 17:08:22;;;;;;;15.60;3.40;;;12.80;1.00;;;;;;5045753;28;20439;-70
2023/01/05 17:10:48;;;;;;;17.27;3.90;;;12.80;1.00;;;;;;5026759;28;20481;-71
2023/01/05 17:13:20;;;;;;;14.37;3.20;;;12.80;1.00;;;;;;5046834;28;20416;-70
2023/01/05 17:15:47;;;;;;;13.67;3.17;;;12.80;1.00;;;;;;5032949;28;20989;-70
2023/01/05 17:18:20;;;;;;;13.17;3.20;;;12.80;1.00;;;;;;5050913;28;20427;-70
2023/01/05 17:20:47;;;;;;;10.50;3.50;;;12.80;1.00;;;;;;5031467;28;20925;-70
2023/01/05 17:23:22;;;;;;;11.73;3.47;;;12.80;1.00;;;;;;5035287;28;20990;-70
2023/01/05 17:25:48;;;;;;;15.50;2.90;;;12.80;1.00;;;;;;5049562;28;20544;-70
2023/01/05 17:28:14;;;;;;;17.37;3.17;;;12.70;1.00;;;;;;5050897;28;20821;-70
2023/01/05 17:30:39;;;;;;;15.40;3.20;;;12.70;1.00;;;;;;5050672;28;20510;-71
2023/01/05 17:33:05;;;;;;;14.97;3.20;;;12.70;1.00;;;;;;5050319;28;20173;-70
2023/01/05 17:35:31;;;;;;;11.50;3.20;;;12.60;1.00;;;;;;5030939;28;20196;-70
2023/01/05 17:37:56;;;;;;;12.40;3.00;;;12.70;1.00;;;;;;5052035;28;20660;-70
2023/01/05 17:40:22;;;;;;;6.53;2.80;;;12.70;1.00;;;;;;5048922;28;20180;-70
2023/01/05 17:42:47;;;;;;;10.00;3.30;;;12.60;1.00;;;;;;5047856;28;20208;-72
2023/01/05 17:45:17;;;;;;;14.50;3.70;;;12.60;1.00;;;;;;5033183;28;20180;-70
2023/01/05 17:47:42;;;;;;;12.23;3.40;;;12.60;1.00;;;;;;5049407;28;20285;-71
2023/01/05 17:50:14;;;;;;;15.77;3.93;;;12.60;1.00;;;;;;5050074;28;20997;-71
2023/01/05 17:52:39;;;;;;;10.13;3.20;;;12.50;1.00;;;;;;5057963;28;20652;-70
2023/01/05 17:55:05;;;;;;;9.33;3.10;;;12.50;1.00;;;;;;5049456;28;20436;-71
2023/01/05 17:57:30;;;;;;;18.90;6.93;;;12.50;1.00;;;;;;5050608;28;20209;-70
2023/01/05 17:59:56;;;;;;;20.63;7.73;;;12.50;1.00;;;;;;5050260;28;20207;-70
2023/01/05 18:02:21;;;;;;;17.30;5.10;;;12.50;1.00;;;;;;5049384;28;20189;-70
2023/01/05 18:04:47;;;;;;;14.20;6.07;;;12.50;1.00;;;;;;5047742;28;20586;-70
2023/01/05 18:07:12;;;;;;;18.87;2.97;;;12.50;1.00;;;;;;5050243;28;20284;-69
2023/01/05 18:09:38;;;;;;;12.07;3.50;;;12.50;1.00;;;;;;5049566;28;20272;-70
2023/01/05 18:12:04;;;;;;;7.43;3.00;;;12.50;1.00;;;;;;5030475;28;20222;-70
2023/01/05 18:14:29;;;;;;;15.70;3.57;;;12.50;1.00;;;;;;5049944;28;20177;-71
2023/01/05 18:16:55;;;;;;;13.53;3.90;;;12.60;1.00;;;;;;5028924;28;20612;-68
2023/01/05 18:19:20;;;;;;;12.50;3.10;;;12.50;1.00;;;;;;5030863;28;20239;-70
2023/01/05 18:21:46;;;;;;;16.97;4.20;;;12.50;1.00;;;;;;5050864;28;20197;-71
2023/01/05 18:24:11;;;;;;;14.63;4.17;;;12.50;1.00;;;;;;5050514;28;20555;-70
2023/01/05 18:26:37;;;;;;;16.10;4.00;;;12.50;1.00;;;;;;5030659;28;20173;-70
2023/01/05 18:29:03;;;;;;;16.40;3.60;;;12.50;1.00;;;;;;5031903;28;20264;-70
2023/01/05 18:31:28;;;;;;;10.53;2.90;;;12.50;1.00;;;;;;5047732;28;20304;-71
2023/01/05 18:33:54;;;;;;;9.90;3.00;;;12.50;1.00;;;;;;5049654;28;20185;-70
2023/01/05 18:36:19;;;;;;;11.57;3.20;;;12.50;1.00;;;;;;5048793;28;20699;-70
2023/01/05 18:38:45;;;;;;;13.90;3.33;;;12.50;1.00;;;;;;5050144;28;20592;-71
2023/01/05 18:41:11;;;;;;;13.67;3.13;;;12.50;1.00;;;;;;5046561;28;20173;-70
2023/01/05 18:43:37;;;;;;;13.00;3.47;;;12.50;1.00;;;;;;5048596;28;20188;-70
2023/01/05 18:46:03;;;;;;;14.40;3.87;;;12.50;1.00;;;;;;5031344;28;20181;-70
2023/01/05 18:48:29;;;;;;;12.50;3.60;;;12.50;1.00;;;;;;5049153;28;20248;-71
2023/01/05 18:50:55;;;;;;;15.47;3.83;;;12.50;1.00;;;;;;5029882;28;20439;-70
2023/01/05 18:53:21;;;;;;;14.00;3.03;;;12.50;1.00;;;;;;5030680;28;20516;-70
2023/01/05 18:55:47;;;;;;;15.07;3.10;;;12.50;1.00;;;;;;5049394;28;20184;-70
2023/01/05 18:58:13;;;;;;;17.90;3.50;;;12.50;1.00;;;;;;5048347;28;20478;-69
2023/01/05 19:00:40;;;;;;;15.80;3.40;;;12.50;1.00;;;;;;5049314;28;20423;-70
2023/01/05 19:03:06;;;;;;;22.13;4.40;;;12.50;1.00;;;;;;5028682;28;20236;-71
2023/01/05 19:05:32;;;;;;;10.33;3.43;;;12.50;1.00;;;;;;5030538;28;20870;-72
2023/01/05 19:07:57;;;;;;;20.00;4.13;;;12.50;1.00;;;;;;5047540;28;20193;-71
2023/01/05 19:10:23;;;;;;;15.73;3.93;;;12.50;1.00;;;;;;5049685;28;20219;-69
2023/01/05 19:12:49;;;;;;;11.23;4.63;;;12.70;1.00;;;;;;5047517;28;20189;-69
2023/01/05 19:15:14;;;;;;;15.93;3.10;;;12.60;1.00;;;;;;5050086;28;20223;-71
2023/01/05 19:17:40;;;;;;;10.87;3.80;;;12.50;1.00;;;;;;5045469;28;20208;-70
2023/01/05 19:20:06;;;;;;;12.23;3.53;;;12.50;1.00;;;;;;5048254;28;20185;-70
2023/01/05 19:22:33;;;;;;;18.03;3.90;;;12.50;1.00;;;;;;5029363;28;20250;-71
2023/01/05 19:24:59;;;;;;;13.33;3.33;;;12.50;1.00;;;;;;5030501;28;20492;-70
2023/01/05 19:27:26;;;;;;;10.10;3.83;;;12.50;1.00;;;;;;5048120;28;20868;-70
2023/01/05 19:29:52;;;;;;;17.53;4.40;;;12.40;1.00;;;;;;5049234;28;20170;-71
2023/01/05 19:32:18;;;;;;;15.83;4.57;;;12.40;1.00;;;;;;5046732;28;20421;-71
2023/01/05 19:34:43;;;;;;;12.67;3.40;;;12.40;1.00;;;;;;5029857;28;20189;-71
2023/01/05 19:37:09;;;;;;;13.03;3.50;;;12.40;1.00;;;;;;5029542;28;20196;-71
2023/01/05 19:39:34;;;;;;;10.20;3.90;;;12.40;1.00;;;;;;5030255;28;20181;-71
2023/01/05 19:42:00;;;;;;;13.97;4.20;;;12.50;1.00;;;;;;5046892;28;20562;-71
2023/01/05 19:44:25;;;;;;;12.37;3.77;;;12.50;1.00;;;;;;5049025;28;20192;-71
2023/01/05 19:46:52;;;;;;;11.50;3.70;;;12.50;1.00;;;;;;5028881;28;20205;-71
2023/01/05 19:49:23;;;;;;;12.60;4.07;;;12.50;1.00;;;;;;5048407;28;20185;-70
2023/01/05 19:51:49;;;;;;;13.30;3.70;;;12.40;1.00;;;;;;5055989;28;21214;-70
2023/01/05 19:54:15;;;;;;;12.03;3.40;;;12.40;1.00;;;;;;5048048;28;20447;-71
2023/01/05 19:56:42;;;;;;;7.80;3.50;;;12.30;1.00;;;;;;5048212;28;20440;-70
2023/01/05 19:59:16;;;;;;;10.80;3.43;;;12.20;1.00;;;;;;5048218;28;20435;-68
2023/01/05 20:01:42;;;;;;;11.13;3.50;;;12.20;1.00;;;;;;5047559;28;20826;-70
2023/01/05 20:04:08;;;;;;;14.03;3.83;;;12.20;1.00;;;;;;5047068;28;20428;-68
2023/01/05 20:06:38;;;;;;;10.13;3.50;;;12.20;1.00;;;;;;5030550;28;20783;-70
2023/01/05 20:09:08;;;;;;;13.30;2.50;;;12.20;1.00;;;;;;5046363;28;20662;-70
2023/01/05 20:11:39;;;;;;;10.20;3.43;;;12.30;1.00;;;;;;5047551;28;20423;-71
2023/01/05 20:14:12;;;;;;;5.87;2.73;;;12.30;1.00;;;;;;5048047;28;20569;-70
2023/01/05 20:16:43;;;;;;;6.70;2.80;;;12.30;1.00;;;;;;5045746;28;20411;-69
2023/01/05 20:19:10;;;;;;;8.10;2.90;;;12.30;1.00;;;;;;5047080;28;20941;-70
2023/01/05 20:21:35;;;;;;;6.17;2.43;;;12.30;1.00;;;;;;5037695;28;20454;-70
2023/01/05 20:24:02;;;;;;;6.70;3.33;;;12.30;1.00;;;;;;5048377;28;20439;-70
2023/01/05 20:26:29;;;;;;;8.47;2.67;;;12.30;1.00;;;;;;5046924;28;20299;-70
2023/01/05 20:28:58;;;;;;;8.53;2.97;;;12.30;1.00;;;;;;5047610;28;20791;-70
2023/01/05 20:31:30;;;;;;;7.70;2.57;;;12.30;1.20;;;;;;5046745;28;20527;-70
2023/01/05 20:33:59;;;;;;;9.30;3.13;;;12.30;1.00;;;;;;5043215;28;20667;-70
2023/01/05 20:36:26;;;;;;;5.93;2.57;;;12.30;1.50;;;;;;5042248;28;20439;-71
2023/01/05 20:38:52;;;;;;;6.43;2.33;;;12.30;2.50;;;;;;5030453;28;20420;-70
2023/01/05 20:41:22;;;;;;;5.93;2.83;;;12.30;3.60;;;;;;5047048;28;20927;-71
2023/01/05 20:43:50;;;;;;;11.60;3.70;;;12.30;3.10;;;;;;5047013;28;20275;-70
2023/01/05 20:46:18;;;;;;;8.93;3.73;;;12.30;3.50;;;;;;5029494;28;20416;-70
2023/01/05 20:48:44;;;;;;;8.37;3.83;;;12.30;4.20;;;;;;5048732;28;20965;-71
2023/01/05 20:51:11;;;;;;;8.80;3.50;;;12.30;3.70;;;;;;5050000;28;20790;-70
2023/01/05 20:53:38;;;;;;;8.80;3.50;;;12.30;5.20;;;;;;5058528;28;20415;-70
2023/01/05 20:56:06;;;;;;;10.33;3.73;;;12.20;6.60;;;;;;5051377;28;20484;-71
2023/01/05 20:58:33;;;;;;;9.77;3.70;;;12.20;6.50;;;;;;5051061;28;20617;-70
2023/01/05 21:00:58;;;;;;;8.93;3.60;;;12.20;7.00;;;;;;5050462;28;20430;-72
2023/01/05 21:03:25;;;;;;;10.10;3.10;;;12.30;7.10;;;;;;5051003;28;20467;-71
2023/01/05 21:05:50;;;;;;;9.73;3.50;;;12.20;6.50;;;;;;5031823;28;20220;-71
2023/01/05 21:08:15;;;;;;;6.40;3.90;;;12.20;7.90;;;;;;5051028;28;20479;-70
2023/01/05 21:10:42;;;;;;;7.20;3.83;;;12.20;8.90;;;;;;5050942;28;20256;-70
2023/01/05 21:13:08;;;;;;;10.53;4.70;;;12.20;7.80;;;;;;5048095;28;20181;-71
2023/01/05 21:15:33;;;;;;;11.10;4.90;;;12.20;8.80;;;;;;5051222;28;20426;-70
2023/01/05 21:17:59;;;;;;;16.80;5.50;;;12.20;9.10;;;;;;5048775;28;20292;-71
2023/01/05 21:20:26;;;;;;;11.33;3.97;;;12.20;10.30;;;;;;5051483;28;20188;-69
2023/01/05 21:22:52;;;;;;;12.93;6.00;;;12.20;10.80;;;;;;5038761;28;20189;-71
2023/01/05 21:25:18;;;;;;;9.80;5.00;;;12.20;10.60;;;;;;5051493;28;20408;-71
2023/01/05 21:27:43;;;;;;;8.37;4.93;;;12.20;11.40;;;;;;5030575;28;20466;-71
2023/01/05 21:30:10;;;;;;;10.60;6.10;;;12.60;11.20;;;;;;5033822;28;20165;-71
2023/01/05 21:32:36;;;;;;;16.97;7.03;;;12.20;11.20;;;;;;5048878;28;20189;-71
2023/01/05 21:35:03;;;;;;;11.80;5.60;;;12.20;11.00;;;;;;5050840;28;20442;-71
2023/01/05 21:37:30;;;;;;;13.83;4.50;;;12.20;9.50;;;;;;5050634;28;20201;-70
2023/01/05 21:39:58;;;;;;;8.40;4.17;;;12.20;8.80;;;;;;5050155;28;20443;-71
2023/01/05 21:42:41;;;;;;;9.00;3.50;;;12.20;8.70;;;;;;5029130;28;20823;-71
2023/01/05 21:45:08;;;;;;;9.37;4.57;;;12.20;7.90;;;;;;5049272;28;20936;-70
2023/01/05 21:47:37;;;;;;;11.63;4.03;;;12.30;7.10;;;;;;5048474;28;20817;-70
2023/01/05 21:50:04;;;;;;;8.60;4.70;;;12.30;5.90;;;;;;5043293;28;20417;-71